Time;durP1;ratioP1;P1;durP2;ratioP2;P2;SDS_P1;SDS_P2;PMS_P1;PMS_P2;Temp;Humidity;BMP_temperature;BMP_pressure;BME280_temperature;BME280_humidity;BME280_pressure;Samples;Min_cycle;Max_cycle;Signal;HPM_P1;HPM_P2
2022/10/20 00:00:07;;;;;;;18.05;7.90;;;;;;;13.61;100.00;100303.69;5007956;28;20492;-60
2022/10/20 00:02:32;;;;;;;13.60;7.70;;;;;;;13.55;100.00;100297.72;5010114;28;20096;-60
2022/10/20 00:04:57;;;;;;;13.90;7.35;;;;;;;13.52;100.00;100305.84;5011434;28;20377;-60
2022/10/20 00:07:23;;;;;;;12.73;6.97;;;;;;;13.51;100.00;100301.44;5011335;28;20028;-60
2022/10/20 00:09:48;;;;;;;15.07;7.40;;;;;;;13.47;100.00;100307.84;5011133;28;20048;-60
2022/10/20 00:12:21;;;;;;;14.52;7.22;;;;;;;13.42;100.00;100293.78;5010301;28;20025;-60
2022/10/20 00:14:47;;;;;;;13.88;7.65;;;;;;;13.40;100.00;100290.31;5010927;28;20433;-60
2022/10/20 00:17:12;;;;;;;15.48;7.35;;;;;;;13.36;100.00;100276.19;5019532;28;20247;-60
2022/10/20 00:19:38;;;;;;;15.32;8.00;;;;;;;13.34;100.00;100263.84;5031026;28;20377;-60
2022/10/20 00:22:03;;;;;;;14.50;7.45;;;;;;;13.35;100.00;100254.88;5031251;28;20045;-61
2022/10/20 00:24:29;;;;;;;15.45;8.27;;;;;;;13.35;100.00;100268.22;5030235;28;20037;-60
2022/10/20 00:26:54;;;;;;;16.13;8.27;;;;;;;13.34;100.00;100263.84;5035500;28;20041;-61
2022/10/20 00:29:19;;;;;;;16.75;8.45;;;;;;;13.37;100.00;100258.38;5036364;28;20026;-60
2022/10/20 00:31:45;;;;;;;15.70;7.65;;;;;;;13.40;100.00;100247.53;5026510;28;20026;-60
2022/10/20 00:34:10;;;;;;;16.13;7.95;;;;;;;13.36;100.00;100240.59;5016781;28;20033;-60
2022/10/20 00:36:37;;;;;;;16.17;8.77;;;;;;;13.40;100.00;100252.88;5017042;28;20108;-60
2022/10/20 00:39:04;;;;;;;16.23;8.25;;;;;;;13.38;100.00;100250.28;5017092;28;20022;-60
2022/10/20 00:41:31;;;;;;;16.05;7.72;;;;;;;13.37;100.00;100242.34;5017151;28;20030;-60
2022/10/20 00:43:59;;;;;;;15.85;7.28;;;;;;;13.36;100.00;100229.91;5016473;28;20380;-60
2022/10/20 00:46:35;;;;;;;16.27;8.70;;;;;;;13.37;100.00;100234.31;5017873;28;20501;-60
2022/10/20 00:49:10;;;;;;;18.23;8.45;;;;;;;13.37;100.00;100228.97;5017046;28;20025;-60
2022/10/20 00:51:36;;;;;;;21.55;9.85;;;;;;;13.37;100.00;100232.53;5017734;28;20492;-61
2022/10/20 00:54:24;;;;;;;17.73;8.23;;;;;;;13.40;100.00;100220.81;5017638;28;20478;-60
2022/10/20 00:56:52;;;;;;;15.93;8.35;;;;;;;13.46;100.00;100231.28;5017134;28;20030;-60
2022/10/20 00:59:21;;;;;;;16.52;8.45;;;;;;;13.46;100.00;100209.91;5017301;28;20026;-60
2022/10/20 01:01:48;;;;;;;15.05;8.95;;;;;;;13.61;100.00;100211.91;5008845;28;20030;-60
2022/10/20 01:04:14;;;;;;;17.10;8.13;;;;;;;13.67;100.00;100198.31;5010290;28;20845;-60
2022/10/20 01:06:40;;;;;;;22.35;8.55;;;;;;;13.75;100.00;100188.16;5017043;28;20026;-60
2022/10/20 01:09:06;;;;;;;15.80;8.48;;;;;;;13.79;100.00;100205.84;5017563;28;20831;-61
2022/10/20 01:11:48;;;;;;;21.45;9.68;;;;;;;13.84;100.00;100206.47;5017690;28;20500;-60
2022/10/20 01:14:31;;;;;;;20.42;9.52;;;;;;;13.89;100.00;100216.06;5017066;28;20045;-61
2022/10/20 01:17:11;;;;;;;24.30;11.82;;;;;;;14.01;100.00;100210.19;5017321;28;20025;-61
2022/10/20 01:20:15;;;;;;;21.00;9.68;;;;;;;14.10;100.00;100206.25;5017141;28;20026;-61
2022/10/20 01:23:08;;;;;;;22.20;11.15;;;;;;;14.16;100.00;100188.13;4988849;28;20473;-61
2022/10/20 01:26:13;;;;;;;20.30;12.17;;;;;;;14.25;100.00;100205.56;5017074;28;20037;-60
2022/10/20 01:28:44;;;;;;;;;;;;;;;14.29;100.00;100188.47;4986713;28;20045;-60
2022/10/20 01:31:21;;;;;;;23.10;10.35;;;;;;;14.32;100.00;100191.00;5017329;28;19959;-61
2022/10/20 01:33:57;;;;;;;20.63;10.23;;;;;;;14.36;100.00;100189.94;5017057;28;20513;-60
2022/10/20 01:36:58;;;;;;;22.15;11.27;;;;;;;14.35;100.00;100202.44;5016953;28;20026;-60
2022/10/20 01:39:40;;;;;;;24.58;11.38;;;;;;;14.36;100.00;100200.63;5014002;28;20465;-60
2022/10/20 01:42:15;;;;;;;24.40;11.40;;;;;;;14.43;100.00;100205.63;5013661;28;20034;-60
2022/10/20 01:44:42;;;;;;;22.30;10.23;;;;;;;14.47;100.00;100203.69;5014157;28;20544;-60
2022/10/20 01:47:10;;;;;;;20.05;9.85;;;;;;;14.51;100.00;100197.25;5014352;28;20117;-61
2022/10/20 01:49:36;;;;;;;21.75;11.80;;;;;;;14.52;100.00;100201.66;5013864;28;20841;-60
2022/10/20 01:52:02;;;;;;;23.88;10.43;;;;;;;14.51;100.00;100205.28;5027145;28;20053;-60
2022/10/20 01:54:29;;;;;;;22.10;11.13;;;;;;;14.52;100.00;100188.28;5032199;28;20071;-60
2022/10/20 01:57:10;;;;;;;25.30;12.05;;;;;;;14.54;100.00;100191.78;5012344;28;20196;-61
2022/10/20 01:59:51;;;;;;;22.50;11.10;;;;;;;14.56;100.00;100173.84;5013374;28;20054;-60
2022/10/20 02:02:31;;;;;;;21.35;10.70;;;;;;;14.55;100.00;100172.06;5013486;28;20443;-61
2022/10/20 02:05:22;;;;;;;21.27;10.48;;;;;;;14.55;100.00;100163.19;5013378;28;20026;-60
2022/10/20 02:07:49;;;;;;;23.90;10.27;;;;;;;14.58;100.00;100158.53;5013647;28;20064;-61
2022/10/20 02:10:33;;;;;;;22.00;10.70;;;;;;;14.59;100.00;100157.63;5013675;28;20025;-60
2022/10/20 02:13:03;;;;;;;23.60;10.90;;;;;;;14.55;100.00;100158.69;5012350;28;20026;-60
2022/10/20 02:15:31;;;;;;;24.80;11.20;;;;;;;14.55;100.00;100161.38;5015321;28;20033;-60
2022/10/20 02:18:02;;;;;;;21.25;9.45;;;;;;;14.53;100.00;100169.47;5031872;28;20134;-60
2022/10/20 02:20:30;;;;;;;24.45;10.27;;;;;;;14.49;100.00;100162.53;5031676;28;20029;-60
2022/10/20 02:22:57;;;;;;;24.67;10.93;;;;;;;14.50;100.00;100160.72;5031239;28;20108;-60
2022/10/20 02:25:24;;;;;;;28.25;10.93;;;;;;;14.49;100.00;100169.69;5031018;28;20072;-60
2022/10/20 02:27:50;;;;;;;26.45;11.43;;;;;;;14.45;100.00;100162.72;5031854;28;20473;-60
2022/10/20 02:30:17;;;;;;;26.65;10.50;;;;;;;14.43;100.00;100170.00;5031881;28;20056;-60
2022/10/20 02:32:48;;;;;;;20.10;10.50;;;;;;;14.45;100.00;100170.75;5013953;28;20035;-60
2022/10/20 02:35:19;;;;;;;22.83;10.73;;;;;;;14.50;100.00;100166.94;5012122;28;20025;-60
2022/10/20 02:37:44;;;;;;;21.77;10.25;;;;;;;14.54;100.00;100165.00;5013323;28;20481;-61
2022/10/20 02:40:10;;;;;;;25.50;10.98;;;;;;;14.50;100.00;100171.41;5013007;28;20022;-60
2022/10/20 02:42:37;;;;;;;22.38;10.13;;;;;;;14.48;100.00;100173.28;5012970;28;20030;-60
2022/10/20 02:45:03;;;;;;;17.88;9.98;;;;;;;14.45;100.00;100173.44;5013049;28;20029;-60
2022/10/20 02:47:28;;;;;;;21.70;10.27;;;;;;;14.47;100.00;100179.59;5012657;28;20079;-61
2022/10/20 02:49:54;;;;;;;17.85;9.70;;;;;;;14.50;100.00;100187.47;5011895;28;20049;-61
2022/10/20 02:52:19;;;;;;;21.15;9.85;;;;;;;14.47;100.00;100182.28;5012314;28;20057;-61
2022/10/20 02:54:45;;;;;;;20.45;10.13;;;;;;;14.49;100.00;100183.09;5012595;28;20033;-61
2022/10/20 02:57:10;;;;;;;18.27;9.20;;;;;;;14.50;100.00;100187.47;5012883;28;20022;-61
2022/10/20 02:59:36;;;;;;;20.20;9.23;;;;;;;14.51;100.00;100183.88;5012452;28;20041;-60
2022/10/20 03:02:01;;;;;;;18.55;9.15;;;;;;;14.50;100.00;100176.78;5012571;28;20061;-61
2022/10/20 03:04:27;;;;;;;15.90;8.77;;;;;;;14.47;100.00;100176.91;5012069;28;20034;-61
2022/10/20 03:06:52;;;;;;;18.00;9.70;;;;;;;14.48;100.00;100167.94;5012411;28;20022;-60
2022/10/20 03:09:18;;;;;;;19.08;9.10;;;;;;;14.46;100.00;100169.84;5012060;28;20105;-61
2022/10/20 03:11:43;;;;;;;16.55;8.18;;;;;;;14.37;100.00;100176.47;5012307;28;20030;-60
2022/10/20 03:14:10;;;;;;;16.75;9.63;;;;;;;14.37;100.00;100167.56;5012308;28;20028;-61
2022/10/20 03:16:36;;;;;;;16.65;8.82;;;;;;;14.38;100.00;100166.66;5012513;28;20034;-61
2022/10/20 03:19:02;;;;;;;16.05;8.88;;;;;;;14.35;100.00;100150.72;5011912;28;20032;-60
2022/10/20 03:21:27;;;;;;;15.07;8.27;;;;;;;14.33;100.00;100137.41;5012190;28;20034;-61
2022/10/20 03:23:53;;;;;;;17.95;8.80;;;;;;;14.32;100.00;100129.44;5011652;28;20481;-61
2022/10/20 03:26:19;;;;;;;17.75;9.13;;;;;;;14.30;100.00;100134.00;5012001;28;20109;-61
2022/10/20 03:28:44;;;;;;;18.65;9.05;;;;;;;14.31;100.00;100130.41;5011755;28;20639;-60
2022/10/20 03:31:10;;;;;;;18.13;8.85;;;;;;;14.28;100.00;100122.53;5011994;28;20026;-60
2022/10/20 03:33:35;;;;;;;14.38;8.20;;;;;;;14.25;100.00;100122.63;5012205;28;20022;-61
2022/10/20 03:36:01;;;;;;;16.20;8.85;;;;;;;14.21;100.00;100132.59;5011971;28;20030;-60
2022/10/20 03:38:26;;;;;;;18.50;8.50;;;;;;;14.25;100.00;100131.53;5011539;28;20038;-61
2022/10/20 03:40:52;;;;;;;17.17;9.60;;;;;;;14.19;100.00;100139.81;5011930;28;20088;-60
2022/10/20 03:43:17;;;;;;;26.05;9.07;;;;;;;14.17;100.00;100130.09;5011675;28;20034;-60
2022/10/20 03:45:43;;;;;;;19.52;9.55;;;;;;;14.19;100.00;100133.59;5011839;28;20371;-61
2022/10/20 03:48:10;;;;;;;24.38;9.88;;;;;;;14.15;100.00;100132.84;5020591;28;20052;-60
2022/10/20 03:50:41;;;;;;;21.10;10.98;;;;;;;14.21;100.00;100137.06;5031257;28;20038;-61
2022/10/20 03:53:07;;;;;;;20.10;10.60;;;;;;;14.17;100.00;100136.34;5031555;28;20039;-61
2022/10/20 03:55:32;;;;;;;20.60;9.80;;;;;;;14.17;100.00;100130.97;5030929;28;20423;-60
2022/10/20 03:57:58;;;;;;;26.35;11.40;;;;;;;14.20;100.00;100132.66;5031348;28;20033;-61
2022/10/20 04:00:23;;;;;;;23.23;10.43;;;;;;;14.21;100.00;100129.94;5030246;28;20552;-61
2022/10/20 04:02:50;;;;;;;26.17;10.70;;;;;;;14.22;100.00;100118.28;5012130;28;20033;-61
2022/10/20 04:05:18;;;;;;;24.48;11.05;;;;;;;14.23;100.00;100121.81;5011037;28;20037;-61
2022/10/20 04:07:43;;;;;;;24.55;11.77;;;;;;;14.21;100.00;100116.53;5011444;28;20045;-61
2022/10/20 04:10:10;;;;;;;26.45;11.30;;;;;;;14.22;100.00;100118.28;5011669;28;20088;-61
2022/10/20 04:12:35;;;;;;;25.33;10.75;;;;;;;14.22;100.00;100115.59;5011312;28;20046;-61
2022/10/20 04:15:01;;;;;;;25.55;11.07;;;;;;;14.18;100.00;100121.16;5011342;28;20440;-60
2022/10/20 04:17:27;;;;;;;26.33;9.85;;;;;;;14.12;100.00;100116.94;5015628;28;20025;-60
2022/10/20 04:19:52;;;;;;;20.63;10.05;;;;;;;14.08;100.00;100119.84;5031035;28;20032;-61
2022/10/20 04:22:18;;;;;;;26.05;10.35;;;;;;;14.09;100.00;100122.44;5030884;28;20049;-61
2022/10/20 04:24:43;;;;;;;27.23;10.50;;;;;;;14.09;100.00;100114.41;5015319;28;20053;-61
2022/10/20 04:27:09;;;;;;;19.92;8.93;;;;;;;14.12;100.00;100116.06;5011240;28;20093;-60
2022/10/20 04:29:35;;;;;;;20.02;9.45;;;;;;;14.15;100.00;100116.81;5011230;28;20102;-61
2022/10/20 04:32:00;;;;;;;19.67;10.77;;;;;;;14.13;100.00;100107.13;5010979;28;20030;-60
2022/10/20 04:34:25;;;;;;;24.55;10.18;;;;;;;14.12;100.00;100094.66;5010946;28;20448;-60
2022/10/20 04:36:51;;;;;;;22.08;10.15;;;;;;;14.12;100.00;100100.03;5011164;28;20034;-61
2022/10/20 04:39:16;;;;;;;19.42;8.95;;;;;;;14.14;100.00;100087.44;5010957;28;20018;-61
2022/10/20 04:41:42;;;;;;;24.05;10.82;;;;;;;14.13;100.00;100073.22;5011149;28;20163;-61
2022/10/20 04:44:07;;;;;;;35.30;12.23;;;;;;;14.13;100.00;100088.41;5011346;28;20029;-61
2022/10/20 04:46:33;;;;;;;17.90;8.98;;;;;;;14.14;100.00;100092.81;5010799;28;20108;-61
2022/10/20 04:48:58;;;;;;;19.88;9.55;;;;;;;14.12;100.00;100092.88;5010732;28;20050;-61
2022/10/20 04:51:23;;;;;;;19.58;10.02;;;;;;;14.11;100.00;100090.28;5010829;28;20037;-61
2022/10/20 04:53:49;;;;;;;18.20;9.68;;;;;;;14.10;100.00;100086.72;5011000;28;20124;-61
2022/10/20 04:56:18;;;;;;;23.50;9.77;;;;;;;14.12;100.00;100078.63;5011002;28;20703;-61
2022/10/20 04:58:52;;;;;;;22.55;9.55;;;;;;;14.12;100.00;100071.47;4998074;28;20429;-61
2022/10/20 05:01:19;;;;;;;19.60;9.93;;;;;;;14.10;100.00;100075.19;4997396;28;20033;-61
2022/10/20 05:03:44;;;;;;;16.45;8.80;;;;;;;14.13;100.00;100080.38;5010968;28;20125;-61
2022/10/20 05:06:16;;;;;;;18.27;8.70;;;;;;;14.11;100.00;100072.44;5010719;28;20030;-60
2022/10/20 05:08:43;;;;;;;23.77;9.20;;;;;;;14.10;100.00;100070.66;5010657;28;20052;-61
2022/10/20 05:11:09;;;;;;;20.15;8.80;;;;;;;14.15;100.00;100067.81;5010667;28;20057;-61
2022/10/20 05:13:35;;;;;;;18.60;9.00;;;;;;;14.18;100.00;100071.19;5014614;28;20477;-61
2022/10/20 05:16:01;;;;;;;19.77;9.75;;;;;;;14.17;100.00;100050.72;5014268;28;20034;-61
2022/10/20 05:18:27;;;;;;;14.85;8.00;;;;;;;14.22;100.00;100059.41;5014612;28;20028;-61
2022/10/20 05:20:53;;;;;;;19.33;9.40;;;;;;;14.22;100.00;100064.75;5013577;28;20038;-60
2022/10/20 05:23:18;;;;;;;18.50;9.18;;;;;;;14.22;100.00;100070.13;5012980;28;20093;-60
2022/10/20 05:25:44;;;;;;;22.02;8.60;;;;;;;14.18;100.00;100078.34;5012990;28;20470;-61
2022/10/20 05:28:09;;;;;;;17.13;8.82;;;;;;;14.13;100.00;100091.06;5013848;28;20034;-60
2022/10/20 05:30:35;;;;;;;20.20;9.98;;;;;;;14.05;100.00;100093.25;5013122;28;20378;-60
2022/10/20 05:33:01;;;;;;;19.38;8.50;;;;;;;14.12;100.00;100100.91;5013727;28;20076;-60
2022/10/20 05:35:27;;;;;;;19.73;9.18;;;;;;;14.11;100.00;100095.63;5013475;28;20097;-61
2022/10/20 05:37:53;;;;;;;20.23;8.85;;;;;;;14.12;100.00;100094.66;5013613;28;20033;-61
2022/10/20 05:40:19;;;;;;;20.05;9.88;;;;;;;14.13;100.00;100094.63;5013291;28;20380;-61
2022/10/20 05:42:44;;;;;;;18.45;8.60;;;;;;;14.15;100.00;100100.75;5013370;28;20029;-60
2022/10/20 05:45:10;;;;;;;19.13;8.80;;;;;;;14.11;100.00;100092.94;5012954;28;20112;-60
2022/10/20 05:47:35;;;;;;;17.60;9.10;;;;;;;14.10;100.00;100094.75;5013770;28;20026;-61
2022/10/20 05:50:01;;;;;;;15.93;8.40;;;;;;;14.12;100.00;100090.19;5013977;28;20021;-60
2022/10/20 05:52:26;;;;;;;21.98;9.75;;;;;;;14.15;100.00;100089.22;5028858;28;20029;-61
2022/10/20 05:54:52;;;;;;;18.08;8.80;;;;;;;14.14;100.00;100082.97;5033710;28;20029;-61
2022/10/20 05:57:17;;;;;;;17.63;8.50;;;;;;;14.13;100.00;100083.06;5027909;28;20018;-61
2022/10/20 05:59:42;;;;;;;18.40;7.85;;;;;;;14.09;100.00;100084.13;5017580;28;20424;-61
2022/10/20 06:02:11;;;;;;;16.98;9.18;;;;;;;14.13;100.00;100086.59;5020089;28;20030;-61
2022/10/20 06:04:37;;;;;;;18.63;8.73;;;;;;;14.17;100.00;100087.31;5013084;28;20029;-61
2022/10/20 06:07:04;;;;;;;19.40;9.35;;;;;;;14.16;100.00;100082.91;5012637;28;20041;-62
2022/10/20 06:09:30;;;;;;;20.20;9.52;;;;;;;14.13;100.00;100088.41;5010816;28;20098;-61
2022/10/20 06:11:56;;;;;;;17.85;9.23;;;;;;;14.12;100.00;100102.69;5012161;28;20068;-61
2022/10/20 06:14:21;;;;;;;17.92;8.55;;;;;;;14.10;100.00;100096.56;5013283;28;20057;-62
2022/10/20 06:16:52;;;;;;;24.55;10.40;;;;;;;14.08;100.00;100103.78;5013320;28;20469;-61
2022/10/20 06:19:17;;;;;;;23.17;9.82;;;;;;;14.10;100.00;100099.25;5013126;28;20519;-61
2022/10/20 06:21:43;;;;;;;18.30;9.32;;;;;;;14.15;100.00;100098.06;5018774;28;20025;-61
2022/10/20 06:24:09;;;;;;;18.95;9.65;;;;;;;14.09;100.00;100093.03;5004172;28;20065;-62
2022/10/20 06:26:36;;;;;;;22.63;10.02;;;;;;;14.05;100.00;100110.13;5002525;28;20026;-62
2022/10/20 06:29:04;;;;;;;24.88;10.15;;;;;;;14.02;100.00;100115.63;5001264;28;20032;-61
2022/10/20 06:31:33;;;;;;;28.30;11.73;;;;;;;14.03;100.00;100119.19;5000815;28;20106;-60
2022/10/20 06:33:59;;;;;;;25.35;10.90;;;;;;;14.00;100.00;100122.00;5010961;28;20026;-62
2022/10/20 06:36:26;;;;;;;20.38;10.98;;;;;;;14.05;100.00;100114.63;5011424;28;20075;-60
2022/10/20 06:38:56;;;;;;;20.90;10.60;;;;;;;14.13;100.00;100117.81;5011259;28;20026;-60
2022/10/20 06:41:23;;;;;;;22.10;10.73;;;;;;;14.13;100.00;100126.72;5011438;28;20561;-61
2022/10/20 06:43:48;;;;;;;25.42;9.68;;;;;;;14.11;100.00;100120.56;5011667;28;20034;-61
2022/10/20 06:46:16;;;;;;;27.55;10.60;;;;;;;14.09;100.00;100124.25;5011360;28;20033;-61
2022/10/20 06:48:43;;;;;;;25.20;11.30;;;;;;;14.12;100.00;100121.41;5012770;28;20029;-61
2022/10/20 06:51:14;;;;;;;24.25;10.70;;;;;;;14.18;100.00;100122.00;5012431;28;20037;-61
2022/10/20 06:53:41;;;;;;;23.13;10.23;;;;;;;14.16;100.00;100123.03;5011604;28;20169;-61
2022/10/20 06:56:10;;;;;;;23.27;11.35;;;;;;;14.16;100.00;100123.03;5012278;28;20390;-61
2022/10/20 06:58:37;;;;;;;19.40;9.55;;;;;;;14.16;100.00;100126.59;5012283;28;20032;-62
2022/10/20 07:01:08;;;;;;;22.92;10.07;;;;;;;14.19;100.00;100114.88;5012087;28;20021;-62
2022/10/20 07:03:35;;;;;;;28.10;12.63;;;;;;;14.28;100.00;100096.59;5009338;28;20049;-61
2022/10/20 07:06:05;;;;;;;25.38;10.85;;;;;;;14.36;100.00;100094.44;4992790;28;20033;-62
2022/10/20 07:08:32;;;;;;;28.73;10.10;;;;;;;14.34;100.00;100098.13;4992788;28;20030;-62
2022/10/20 07:11:06;;;;;;;21.52;10.68;;;;;;;14.38;100.00;100107.78;4994035;28;20049;-62
2022/10/20 07:13:32;;;;;;;23.35;11.45;;;;;;;14.39;100.00;100109.50;5009200;28;20030;-61
2022/10/20 07:15:58;;;;;;;27.15;11.18;;;;;;;14.31;100.00;100096.50;4996284;28;20370;-60
2022/10/20 07:18:26;;;;;;;22.48;9.48;;;;;;;14.33;100.00;100117.81;4993189;28;20054;-60
2022/10/20 07:20:55;;;;;;;30.85;13.25;;;;;;;14.37;100.00;100122.06;5004183;28;20197;-60
2022/10/20 07:23:20;;;;;;;25.38;11.05;;;;;;;14.38;100.00;100107.78;4993993;28;20381;-60
2022/10/20 07:25:46;;;;;;;23.92;11.20;;;;;;;14.47;100.00;100101.97;4992577;28;20030;-60
2022/10/20 07:28:11;;;;;;;22.55;11.05;;;;;;;14.50;100.00;100116.09;4995144;28;20029;-60
2022/10/20 07:30:41;;;;;;;24.77;11.07;;;;;;;14.48;100.00;100111.72;5006664;28;20032;-60
2022/10/20 07:33:08;;;;;;;25.55;10.57;;;;;;;14.50;100.00;100112.53;5011427;28;20065;-60
2022/10/20 07:35:34;;;;;;;22.83;10.85;;;;;;;14.53;100.00;100101.69;5000825;28;20571;-60
2022/10/20 07:38:00;;;;;;;26.23;12.05;;;;;;;14.53;100.00;100101.69;5001457;28;20026;-60
2022/10/20 07:40:25;;;;;;;21.20;11.23;;;;;;;14.56;100.00;100098.88;4992597;28;20041;-60
2022/10/20 07:42:51;;;;;;;23.63;10.77;;;;;;;14.58;100.00;100110.34;4994600;28;20030;-60
2022/10/20 07:45:16;;;;;;;22.65;11.43;;;;;;;14.65;100.00;100105.59;5001513;28;20032;-60
2022/10/20 07:47:42;;;;;;;22.88;11.20;;;;;;;14.65;100.00;100108.25;5007857;28;20473;-60
2022/10/20 07:50:08;;;;;;;22.77;11.52;;;;;;;14.73;100.00;100131.06;4996027;28;20134;-60
2022/10/20 07:52:34;;;;;;;23.23;11.43;;;;;;;14.75;100.00;100139.91;4995625;28;20108;-60
2022/10/20 07:54:59;;;;;;;21.92;9.70;;;;;;;14.77;100.00;100142.50;4999415;28;20101;-60
2022/10/20 07:57:25;;;;;;;19.85;10.63;;;;;;;14.84;100.00;100139.47;5008252;28;21723;-60
2022/10/20 07:59:50;;;;;;;23.38;11.10;;;;;;;14.91;100.00;100146.25;5003707;28;20022;-60
2022/10/20 08:02:16;;;;;;;21.75;10.93;;;;;;;14.91;100.00;100159.63;4999776;28;20033;-60
2022/10/20 08:04:43;;;;;;;19.38;10.13;;;;;;;14.86;100.00;100182.25;5006668;28;20022;-60
2022/10/20 08:07:09;;;;;;;20.00;10.55;;;;;;;14.81;100.00;100179.75;4995172;28;20030;-60
2022/10/20 08:09:35;;;;;;;24.10;10.77;;;;;;;14.87;100.00;100166.09;5000316;28;20437;-60
2022/10/20 08:12:01;;;;;;;21.08;10.85;;;;;;;14.96;100.00;100191.59;5003069;28;20118;-61
2022/10/20 08:14:30;;;;;;;22.65;11.45;;;;;;;15.06;100.00;100191.06;4993839;28;20732;-59
2022/10/20 08:16:56;;;;;;;30.15;15.45;;;;;;;15.24;100.00;100187.47;4997833;28;20026;-60
2022/10/20 08:19:22;;;;;;;34.85;11.95;;;;;;;15.36;100.00;100197.63;4995016;28;20044;-60
2022/10/20 08:21:47;;;;;;;23.50;10.75;;;;;;;15.42;100.00;100189.28;4997435;28;20041;-59
2022/10/20 08:24:12;;;;;;;19.48;9.98;;;;;;;15.58;100.00;100198.31;4994658;28;20045;-59
2022/10/20 08:26:38;;;;;;;27.35;11.57;;;;;;;15.72;100.00;100203.84;4994826;28;20178;-60
2022/10/20 08:29:03;;;;;;;24.65;11.52;;;;;;;15.91;100.00;100200.22;5000908;28;20058;-60
2022/10/20 08:31:29;;;;;;;18.00;9.48;;;;;;;15.88;100.00;100205.75;4992482;28;20125;-60
2022/10/20 08:33:55;;;;;;;21.88;10.27;;;;;;;15.90;100.00;100204.72;4995682;28;20906;-60
2022/10/20 08:36:21;;;;;;;21.10;10.70;;;;;;;15.97;100.00;100199.91;4992752;28;20027;-60
2022/10/20 08:38:47;;;;;;;25.38;11.52;;;;;;;16.00;100.00;100189.00;4993634;28;20141;-60
2022/10/20 08:41:25;;;;;;;20.02;10.40;;;;;;;16.12;100.00;100191.06;4996415;28;20064;-61
2022/10/20 08:43:54;;;;;;;21.88;10.10;;;;;;;15.99;100.00;100177.44;4994834;28;20045;-60
2022/10/20 08:46:25;;;;;;;21.58;10.63;;;;;;;16.00;100.00;100189.00;4992701;28;20242;-59
2022/10/20 08:48:51;;;;;;;20.23;9.25;;;;;;;16.07;100.00;100182.38;5001346;28;20029;-60
2022/10/20 08:51:22;;;;;;;20.35;10.38;;;;;;;16.22;100.00;100185.16;4998102;28;20027;-60
2022/10/20 08:53:51;;;;;;;23.63;11.02;;;;;;;16.22;100.00;100176.22;4999399;28;20100;-60
2022/10/20 08:56:21;;;;;;;19.55;10.45;;;;;;;16.21;100.00;100167.28;4999593;28;20018;-61
2022/10/20 08:58:47;;;;;;;20.58;10.13;;;;;;;16.14;100.00;100159.66;4996339;28;20053;-61
2022/10/20 09:01:28;;;;;;;25.02;10.32;;;;;;;16.09;100.00;100169.78;5003465;28;20398;-60
2022/10/20 09:04:13;;;;;;;24.05;11.20;;;;;;;16.05;100.00;100166.38;4998644;28;20074;-61
2022/10/20 09:06:42;;;;;;;22.55;10.57;;;;;;;16.16;100.00;100160.44;4999538;28;20080;-60
2022/10/20 09:09:13;;;;;;;23.83;11.98;;;;;;;16.26;100.00;100164.38;5003812;28;20050;-59
2022/10/20 09:11:39;;;;;;;23.73;10.45;;;;;;;16.37;100.00;100157.50;5002997;28;20089;-59
2022/10/20 09:14:08;;;;;;;24.92;11.50;;;;;;;16.58;100.00;100152.78;4998743;28;20217;-59
2022/10/20 09:16:43;;;;;;;22.08;10.20;;;;;;;16.63;100.00;100148.91;4994349;28;20394;-59
2022/10/20 09:19:21;;;;;;;22.98;11.18;;;;;;;16.63;100.00;100174.91;4999154;28;20504;-59
2022/10/20 09:21:54;;;;;;;22.05;10.20;;;;;;;16.57;100.00;100165.34;5005670;28;20029;-59
2022/10/20 09:24:21;;;;;;;;;;;;;;;16.49;100.00;100169.41;5013465;28;20137;-59
2022/10/20 09:26:49;;;;;;;17.35;9.30;;;;;;;16.54;100.00;100175.41;4998900;28;20579;-59
2022/10/20 09:29:22;;;;;;;19.70;10.10;;;;;;;16.51;100.00;100175.56;4995623;28;20813;-59
2022/10/20 09:31:54;;;;;;;19.13;11.05;;;;;;;16.53;100.00;100184.41;5000450;28;20034;-60
2022/10/20 09:34:31;;;;;;;19.02;10.25;;;;;;;16.56;100.00;100169.00;4998988;28;20073;-60
2022/10/20 09:37:02;;;;;;;26.15;10.90;;;;;;;16.59;100.00;100160.75;4995250;28;20041;-61
2022/10/20 09:39:31;;;;;;;26.50;11.50;;;;;;;16.76;100.00;100170.59;5001331;28;20024;-60
2022/10/20 09:42:03;;;;;;;19.98;10.55;;;;;;;16.80;100.00;100161.41;4993477;28;20029;-60
2022/10/20 09:44:31;;;;;;;19.50;10.80;;;;;;;16.77;100.00;100146.31;4999800;28;20057;-60
2022/10/20 09:46:57;;;;;;;22.38;10.23;;;;;;;16.77;100.00;100150.84;4996292;28;20445;-60
2022/10/20 09:49:27;;;;;;;19.20;8.90;;;;;;;16.70;100.00;100147.63;5001037;28;20022;-60
2022/10/20 09:51:53;;;;;;;20.27;9.80;;;;;;;16.70;100.00;100136.00;5001491;28;20617;-59
2022/10/20 09:54:21;;;;;;;18.10;9.65;;;;;;;16.70;100.00;100101.09;4999876;28;20026;-59
2022/10/20 09:56:48;;;;;;;20.98;10.15;;;;;;;16.80;100.00;100072.75;4997054;28;20026;-59
2022/10/20 09:59:30;;;;;;;30.50;11.38;;;;;;;16.87;100.00;100066.06;4994971;28;20024;-60
2022/10/20 10:01:58;;;;;;;20.33;10.90;;;;;;;16.88;100.00;100124.22;4995362;28;20037;-60
2022/10/20 10:04:33;;;;;;;21.50;11.45;;;;;;;16.54;100.00;100170.03;4998281;28;20033;-60
2022/10/20 10:06:58;;;;;;;22.33;11.52;;;;;;;16.71;100.00;100152.03;4997372;28;20033;-60
2022/10/20 10:09:36;;;;;;;20.90;10.60;;;;;;;16.97;100.00;100142.50;4998633;28;20030;-60
2022/10/20 10:12:11;;;;;;;19.77;10.00;;;;;;;17.36;100.00;100145.63;4995116;28;20117;-60
2022/10/20 10:14:47;;;;;;;19.58;10.10;;;;;;;17.54;100.00;100131.13;4996537;28;20042;-59
2022/10/20 10:17:37;;;;;;;18.25;9.02;;;;;;;17.68;100.00;100131.16;4995901;28;20088;-59
2022/10/20 10:20:26;;;;;;;22.00;9.80;;;;;;;17.67;100.00;100129.44;5004411;28;20032;-60
2022/10/20 10:23:25;;;;;;;17.75;8.75;;;;;;;17.66;100.00;100133.06;5009331;28;20069;-59
2022/10/20 10:25:52;;;;;;;18.63;9.00;;;;;;;17.68;100.00;100114.16;4993872;28;20062;-59
2022/10/20 10:28:38;;;;;;;16.63;8.27;;;;;;;17.75;100.00;100105.63;5006245;28;20038;-59
2022/10/20 10:31:07;;;;;;;18.67;9.23;;;;;;;17.75;100.00;100116.41;4995934;28;20080;-60
2022/10/20 10:33:32;;;;;;;16.77;8.68;;;;;;;17.72;100.00;100119.28;4996946;28;20673;-60
2022/10/20 10:36:01;;;;;;;19.65;9.35;;;;;;;17.65;100.00;100104.44;4997264;28;20030;-60
2022/10/20 10:38:27;;;;;;;23.20;9.60;;;;;;;17.60;100.00;100101.16;4993945;28;20037;-60
2022/10/20 10:41:32;;;;;;;16.83;9.15;;;;;;;17.58;100.00;100113.84;5007348;28;20046;-60
2022/10/20 10:44:34;;;;;;;15.70;8.93;;;;;;;17.48;100.00;100118.03;4986600;28;20120;-60
2022/10/20 10:47:30;;;;;;;29.75;15.32;;;;;;;17.51;100.00;100098.16;4994520;28;20381;-60
2022/10/20 10:50:23;;;;;;;27.00;15.38;;;;;;;17.52;100.00;100092.69;4999096;28;20018;-60
2022/10/20 10:53:30;;;;;;;37.78;18.83;;;;;;;17.53;100.00;100086.34;4997047;28;20778;-60
2022/10/20 10:56:02;;;;;;;31.33;14.27;;;;;;;17.46;100.00;100093.03;4988202;28;20116;-61
2022/10/20 10:58:49;;;;;;;24.40;11.75;;;;;;;17.47;100.00;100089.41;5001345;28;20085;-61
2022/10/20 11:01:14;;;;;;;54.58;14.68;;;;;;;17.54;100.00;100101.53;4993778;28;20034;-60
2022/10/20 11:03:47;;;;;;;23.45;11.52;;;;;;;17.62;100.00;100099.25;4997548;28;20076;-60
2022/10/20 11:06:41;;;;;;;32.72;12.20;;;;;;;17.64;100.00;100099.16;5001639;28;20032;-60
2022/10/20 11:09:12;;;;;;;23.13;11.95;;;;;;;17.73;100.00;100091.41;4986775;28;20045;-60
2022/10/20 11:11:55;;;;;;;27.73;11.35;;;;;;;17.78;100.00;100091.13;4996317;28;20867;-60
2022/10/20 11:14:48;;;;;;;20.80;10.70;;;;;;;17.71;100.00;100092.47;4996851;28;20052;-60
2022/10/20 11:17:23;;;;;;;19.13;8.63;;;;;;;17.71;100.00;100092.47;4995583;28;20026;-60